Goldfield, Nevada Weather observations

Data are for observation ending at time listed.
 Day   Time    Ave.   Ave.  Ave.  Vector   Max.   Stn.    Total    Solar   Ave.  
  of    of     Air    Rel.  Wind   Wind    Wind   Baro.  Precip.   Rad.    Soil  
Year   Day     Temp.  Hum.  Speed  Dir.    Gust   Pres.                    Temp. 
2015   (PST)    F      %     mph   deg.    mph     mb.     in.     W/m2     F   
------------------------------------------------------------------------------
 141   20:30   55.4    40    8.3   107     13.7   823.1    0.00       0    60.3
 141   20:40   55.4    40    7.1   105     12.6   823.2    0.00       0    60.1
 141   20:50   55.2    40    8.8   103     15.3   823.3    0.00       0    59.9
 141   21:00   55.2    40    7.2   104     11.7   823.4    0.00       0    59.7
 141   21:10   55.1    40    6.5   101     10.2   823.5    0.00       0    59.7
 141   21:20   54.9    41    5.5   114      8.6   823.5    0.00       0    59.5
 141   21:30   54.9    42    4.1   160      6.6   823.6    0.00       0    59.4
 141   21:40   54.6    44    5.7   216      9.0   823.7    0.00       0    59.2
 141   21:50   54.4    43    8.4   219     13.6   823.8    0.00       0    59.1
 141   22:00   54.8    42    5.7   191     11.3   823.8    0.00       0    59.0
 141   22:10   54.0    48    6.3   220      9.6   823.9    0.00       0    58.9
 141   22:20   53.3    49    6.4   226      8.2   823.8    0.00       0    58.8
 141   22:30   53.0    49    5.6   237      8.4   823.8    0.00       0    58.7
 141   22:40   52.7    49    4.4   238      7.4   823.9    0.00       0    58.6
 141   22:50   52.3    52    3.5   320     14.3   824.0    0.00       0    58.5
 141   23:00   50.5    63   10.7   316     16.5   824.2    0.00       0    58.5
 141   23:10   50.2    66    9.3   309     13.2   824.1    0.00       0    58.4
 141   23:20   49.6    68    8.3   321     11.9   824.2    0.00       0    58.2
 141   23:30   49.2    70    3.8   325      7.8   824.4    0.00       0    58.0
 141   23:40   49.1    74    3.0   234      4.8   824.5    0.00       0    57.9
 141   23:50   48.9    76    4.5   305      7.4   824.4    0.00       0    57.8
 142    0:00   48.8    74    7.0   295      9.7   824.5    0.00       0    57.7
 142    0:10   48.7    74    7.1   291     11.1   824.5    0.00       0    57.6
 142    0:20   48.6    73    7.6   292     11.1   824.6    0.00       0    57.3
 142    0:30   48.3    76    7.3   294     10.1   824.5    0.00       0    57.3
 142    0:40   48.0    77    8.0   290     11.9   824.5    0.00       0    57.3
 142    0:50   47.9    77    7.5   292     11.3   824.5    0.00       0    57.1
 142    1:00   47.8    79    6.7   290     10.2   824.5    0.00       0    57.0
 142    1:10   47.8    79    7.5   295     10.7   824.5    0.00       0    56.9
 142    1:20   47.8    79    7.0   300     10.1   824.5    0.00       0    56.9
 142    1:30   47.9    79    6.7   304      9.1   824.6    0.00       0    56.6
 142    1:40   47.8    79    4.7   304      7.1   824.6    0.00       0    56.6
 142    1:50   47.6    79    3.7   309      5.4   824.6    0.00       0    56.4
 142    2:00   47.7    79    3.0   307      5.3   824.6    0.00       0    56.3
 142    2:10   47.8    78    0.6   299      2.0   824.6    0.00       0    56.3
 142    2:20   47.8    78    4.5   172     13.3   824.7    0.00       0    56.1
 142    2:30   46.6    84   10.9   170     14.8   824.7    0.00       0    56.1
 142    2:40   45.9    85   10.5   158     14.5   824.8    0.00       0    55.9
 142    2:50   45.4    86    5.8   179     10.8   824.8    0.04       0    55.9
 142    3:00   45.1    89    6.5   276     11.4   824.5    0.00       0    55.9
 142    3:10   45.3    87   10.3   288     14.8   824.2    0.01       1    55.7
 142    3:20   45.6    85   10.0   274     17.9   824.1    0.00       0    55.6
 142    3:30   45.3    83    8.8   279     14.8   824.1    0.00       0    55.4
 142    3:40   45.2    85    6.6   281     12.7   824.2    0.00       0    55.3
 142    3:50   44.9    83    3.7   339      8.0   824.4    0.00       0    55.1
 142    4:00   43.6    82    3.7     4      7.6   824.3    0.00       0    55.1
 142    4:10   44.4    82    4.4   352      9.1   824.3    0.00       0    54.9
 142    4:20   44.0    86    5.4   344      9.7   824.3    0.00       0    54.9
 142    4:30   44.1    92    6.5   345     10.2   824.3    0.00       1    54.9
 142    4:40   44.4    94    6.8   325     10.5   824.4    0.00       3    54.4
 142    4:50   44.6    95    4.5   328      7.3   824.5    0.00       6    54.4
 142    5:00   44.7    95    4.2   342      7.3   824.6    0.00      13    54.2
 142    5:10   44.6    94    5.5   349      8.3   824.7    0.00      24    54.3
 142    5:20   44.4    93    5.3   345      8.4   824.8    0.00      36    54.1
 142    5:30   44.1    91    4.1   345      6.3   824.9    0.00      58    54.0
 142    5:40   44.6    90    4.2   344      6.9   825.0    0.00      99    53.9
 142    5:50   44.9    90    3.6   330      6.4   825.0    0.00     123    53.9
 142    6:00   45.5    88    5.2   311      8.8   825.1    0.00     140    53.7
 142    6:10   46.0    82    7.1   304     10.7   825.1    0.00     140    53.7
 142    6:20   45.9    80    8.1   300     12.3   825.1    0.00     140    53.7
 142    6:30   46.5    80    6.5   298      9.7   825.1    0.00     124    53.7
 142    6:40   46.8    80    4.7   307      7.0   825.1    0.00      76    53.5
 142    6:50   46.4    80    5.0   353      8.6   825.2    0.00      62    53.5
 142    7:00   45.8    84    3.3   351      6.5   825.3    0.01     127    53.5
 142    7:10   46.1    85    2.4   343      4.2   825.4    0.01     132    53.7
 142    7:20   46.5    83    2.0   245      4.7   825.4    0.00     151    53.4
 142    7:30   47.2    85    2.2   260      4.1   825.4    0.00     227    53.5
 142    7:40   47.7    82    1.4   340      3.3   825.5    0.00     248    53.4
 142    7:50   48.2    78    2.1   318      4.3   825.6    0.00     258    53.5
 142    8:00   48.8    76    0.6   325      2.4   825.8    0.00     200    53.6
 142    8:10   48.9    73    0.9   148      3.5   825.8    0.00     117    53.7
 142    8:20   48.4    75    2.4   156      4.0   825.8    0.00     155    53.8
 142    8:30   48.3    75    3.9   155      8.2   825.9    0.00     335    53.8
 142    8:40   49.0    77    5.7   158      9.0   825.9    0.00     512    54.1
 142    8:50   49.4    78    5.9   172      9.9   825.8    0.00     413    54.0
 142    9:00   50.4    74    4.8   205      8.8   825.7    0.00     589    54.3
 142    9:10   52.9    67    3.8   230      6.6   825.7    0.00     677    54.3
 142    9:20   52.8    64    3.3   285      8.1   825.5    0.00     290    54.5
 142    9:30   52.7    63    3.4   296      7.2   825.5    0.00     780    54.7
 142    9:40   54.4    59    4.2   278      9.1   825.5    0.00     871    55.1
 142    9:50   54.3    59    3.8   292     10.0   825.3    0.00     558    55.3
 142   10:00   55.0    55    5.5   316      9.6   825.3    0.00     882    55.5
 142   10:10   55.3    57    6.0   291     12.0   825.2    0.00     521    55.8
 142   10:20   54.9    56    7.1   306     12.9   825.2    0.00     903    56.4
 142   10:30   55.0    54    5.8   320     11.6   825.2    0.00     552    56.8
 142   10:40   54.4    56    7.6   314     13.9   825.1    0.00     698    57.0
 142   10:50   55.1    54    6.4   309     14.2   825.0    0.00     596    57.3
 142   11:00   55.8    54    9.6   319     15.3   824.7    0.00     989    57.7
 142   11:10   56.4    52    9.3   312     14.4   824.7    0.00    1073    58.0
 142   11:20   58.1    49    6.6   301     13.9   824.7    0.00    1097    58.2
 142   11:30   58.8    48    9.2   303     14.6   824.6    0.00     949    58.7
 142   11:40   57.7    50    9.6   308     17.1   824.6    0.00     607    58.9
 142   11:50   57.8    49   10.0   306     17.0   824.5    0.00     724    59.6
 142   12:00   57.6    49    9.0   298     15.1   824.4    0.00     754    59.8
 142   12:10   60.0    44    7.4   292     14.6   824.3    0.00    1284    60.3
 142   12:20   60.2    44    8.0   297     16.4   824.2    0.00     593    60.3
 142   12:30   59.5    44    7.1   297     13.2   824.3    0.00     956    60.7
 142   12:40   60.5    42    7.3   296     14.5   824.2    0.00     895    61.1
 142   12:50   60.9    41    5.2   303     14.8   824.3    0.00     894    61.1
 142   13:00   59.7    42    5.1   265     11.8   824.2    0.00     263    61.6
 142   13:10   57.5    40    7.2   137     18.9   824.2    0.00     164    61.8
 142   13:20   53.2    55   10.2    78     15.6   824.4    0.00     154    62.0
 142   13:30   52.7    57   12.3    69     19.1   824.4    0.00     244    62.2
 142   13:40   51.9    62   11.4    89     18.0   824.6    0.00     407    62.2
 142   13:50   50.8    67    9.5   109     14.3   824.6    0.00     115    62.1
 142   14:00   48.9    76    8.9   124     13.6   824.9    0.01      56    61.9
 142   14:10   48.0    78   10.1   154     13.7   825.1    0.01      29    62.0
 142   14:20   47.4    80   10.3   168     13.0   825.2    0.03      17    61.8
 142   14:30   47.0    80    7.9   172     11.5   825.4    0.00       9    61.6
 142   14:40   46.9    81    6.7   171     13.7   825.5    0.02       8    61.3
 142   14:50   46.6    81    8.1   170     12.6   825.5    0.03       9    61.0
 142   15:00   46.5    84    6.7   168     10.7   825.6    0.01      18    60.5
 142   15:10   46.4    86    7.7   171     10.5   825.7    0.00      44    59.0
 142   15:20   46.4    83    8.3   165     11.6   825.8    0.01      95    58.7
 142   15:30   46.8    84    9.2   185     12.7   825.8    0.01     113    58.6
 142   15:40   46.8    88   11.6   220     17.2   825.9    0.00      92    58.4
 142   15:50   46.5    85   10.5   222     17.2   825.8    0.02      82    58.3
 142   16:00   46.5    80   11.1   192     16.0   825.6    0.01      84    57.6
 142   16:10   46.5    82   14.1   178     20.4   825.3    0.01     116    56.6
 142   16:20   47.0    82   14.4   186     20.8   825.4    0.00     207    55.9
 142   16:30   47.2    82   12.7   203     18.4   825.4    0.00     135    55.9
 142   16:40   47.5    80    9.6   206     17.2   825.5    0.00      89    56.2
 142   16:50   47.5    79   10.3   218     15.1   825.4    0.00      72    56.2
 142   17:00   47.9    76    7.0   224     10.4   825.4    0.00      90    56.2
 142   17:10   48.6    77    4.3   258      9.1   825.4    0.00      83    56.4
 142   17:20   49.0    78    6.5   308     10.3   825.4    0.00      56    56.3
 142   17:30   48.9    81    8.5   313     12.6   825.5    0.00      44    56.1
 142   17:40   48.4    83    6.2   300     10.1   825.6    0.00      35    56.1
 142   17:50   48.1    84    1.2   264      3.9   825.4    0.00      41    56.1
 142   18:00   48.6    78    0.8   326      2.2   825.2    0.00      60    56.0
 142   18:10   49.2    77    1.4   322      3.4   825.2    0.00      64    55.9
 142   18:20   49.6    75    3.1   311      5.8   825.3    0.00      52    56.0
 142   18:30   49.9    75    3.3   336      6.5   825.3    0.00      34    55.9
 142   18:40   49.2    79    3.7   342      6.3   825.4    0.00      19    55.8
 142   18:50   48.8    80    4.5   348      7.0   825.4    0.00       9    55.7
 142   19:00   48.3    80    4.8   329      8.2   825.6    0.00       4    55.6
 142   19:10   47.8    82    4.5   334      7.4   825.6    0.00       3    55.8
 142   19:20   47.6    84    5.1   324      8.8   825.7    0.00       0    55.5
 142   19:30   47.4    86    6.7   315      9.2   825.8    0.00       0    55.3
 142   19:40   47.1    89    6.4   317      9.3   825.8    0.00       0    55.3
 142   19:50   46.9    91    4.5   288      9.8   825.7    0.00       0    55.2
 142   20:00   46.8    90    3.0   289      5.9   825.6    0.00       0    55.1
 142   20:10   47.0    89    3.3   337      5.4   825.7    0.00       0    54.9
 142   20:20   46.7    91    5.1   344      8.3   825.8    0.00       0    54.9

Return to Goldfield, Nevada graphs page.


Western Regional Climate Center,wrcc@dri.edu